createdAt,value
2023-05-19T00:00:24.984Z,8.51
2023-05-19T00:01:24.968Z,8.53
2023-05-19T00:02:24.998Z,8.55
2023-05-19T00:03:24.974Z,8.56
2023-05-19T00:04:24.952Z,8.56
2023-05-19T00:05:24.932Z,8.56
2023-05-19T00:06:24.913Z,8.60
2023-05-19T00:07:24.868Z,8.63
2023-05-19T00:08:24.937Z,8.60
2023-05-19T00:09:24.865Z,8.61
2023-05-19T00:10:24.840Z,8.61
2023-05-19T00:11:24.828Z,8.61
2023-05-19T00:12:24.830Z,8.61
2023-05-19T00:13:24.829Z,8.60
2023-05-19T00:14:24.817Z,8.58
2023-05-19T00:15:24.793Z,8.58
2023-05-19T00:16:24.942Z,8.60
2023-05-19T00:17:24.772Z,8.56
2023-05-19T00:18:24.782Z,8.55
2023-05-19T00:19:25.584Z,8.53
2023-05-19T00:20:24.768Z,8.52
2023-05-19T00:21:24.720Z,8.48
2023-05-19T00:22:24.744Z,8.49
2023-05-19T00:23:24.727Z,8.46
2023-05-19T00:24:24.698Z,8.44
2023-05-19T00:25:24.690Z,8.42
2023-05-19T00:26:24.686Z,8.36
2023-05-19T00:27:24.676Z,8.34
2023-05-19T00:28:24.669Z,8.33
2023-05-19T00:29:24.637Z,8.30
2023-05-19T00:30:24.637Z,8.20
2023-05-19T00:31:24.644Z,8.18
2023-05-19T00:32:24.732Z,8.15
2023-05-19T00:33:24.595Z,8.12
2023-05-19T00:34:24.599Z,8.10
2023-05-19T00:35:24.591Z,8.05
2023-05-19T00:36:24.566Z,8.08
2023-05-19T00:37:24.575Z,8.01
2023-05-19T00:38:24.556Z,8.03
2023-05-19T00:39:24.547Z,8.00
2023-05-19T00:40:24.523Z,7.98
2023-05-19T00:41:24.537Z,7.95
2023-05-19T00:42:24.518Z,7.90
2023-05-19T00:43:24.503Z,7.90
2023-05-19T00:44:24.497Z,7.80
2023-05-19T00:45:24.472Z,7.77
2023-05-19T00:46:24.485Z,7.76
2023-05-19T00:47:24.560Z,7.75
2023-05-19T00:48:24.448Z,7.67
2023-05-19T00:49:24.432Z,7.67
2023-05-19T00:50:24.424Z,7.60
2023-05-19T00:51:24.437Z,7.57
2023-05-19T00:52:24.404Z,7.61
2023-05-19T00:53:24.391Z,7.57
2023-05-19T00:54:24.380Z,7.56
2023-05-19T00:55:24.392Z,7.48
2023-05-19T00:56:24.378Z,7.43
2023-05-19T00:57:24.341Z,7.38
2023-05-19T00:58:24.340Z,7.31
2023-05-19T00:59:24.322Z,7.21
2023-05-19T01:00:24.331Z,7.17
2023-05-19T01:01:24.341Z,7.06
2023-05-19T01:02:24.337Z,7.02
2023-05-19T01:03:24.396Z,7.00
2023-05-19T01:04:24.267Z,6.95
2023-05-19T01:05:24.278Z,6.92
2023-05-19T01:06:24.245Z,6.89
2023-05-19T01:07:24.238Z,6.85
2023-05-19T01:08:24.240Z,6.84
2023-05-19T01:09:24.225Z,6.79
2023-05-19T01:10:24.237Z,6.77
2023-05-19T01:11:24.196Z,6.74
2023-05-19T01:12:24.197Z,6.63
2023-05-19T01:13:24.175Z,6.54
2023-05-19T01:14:24.192Z,6.46
2023-05-19T01:15:24.191Z,6.36
2023-05-19T01:16:24.149Z,6.19
2023-05-19T01:17:24.126Z,6.05
2023-05-19T01:18:24.130Z,5.94
2023-05-19T01:19:24.172Z,5.83
2023-05-19T01:20:24.105Z,5.79
2023-05-19T01:21:24.092Z,5.76
2023-05-19T01:22:24.081Z,5.68
2023-05-19T01:23:24.111Z,5.57
2023-05-19T01:24:24.089Z,5.46
2023-05-19T01:25:24.046Z,5.35
2023-05-19T01:26:24.043Z,5.26
2023-05-19T01:27:24.019Z,5.18
2023-05-19T01:28:24.029Z,5.14
2023-05-19T01:29:24.014Z,5.02
2023-05-19T01:30:23.986Z,4.94
2023-05-19T01:31:24.110Z,4.87
2023-05-19T01:32:24.053Z,4.78
2023-05-19T01:33:23.993Z,4.66
2023-05-19T01:34:23.953Z,4.55
2023-05-19T01:35:23.939Z,4.49
2023-05-19T01:36:23.941Z,4.44
2023-05-19T01:37:23.921Z,4.41
2023-05-19T01:38:23.927Z,4.37
2023-05-19T01:39:23.896Z,4.37
2023-05-19T01:40:23.907Z,4.34
2023-05-19T01:41:23.884Z,4.32
2023-05-19T01:42:24.062Z,4.34
2023-05-19T01:43:23.884Z,4.34
2023-05-19T01:44:23.852Z,4.32
2023-05-19T01:45:23.832Z,4.31
2023-05-19T01:46:23.878Z,4.30
2023-05-19T01:47:23.861Z,4.31
2023-05-19T01:48:23.821Z,4.28
2023-05-19T01:49:23.815Z,4.24
2023-05-19T01:50:23.795Z,4.23
2023-05-19T01:51:23.787Z,4.23
2023-05-19T01:52:23.798Z,4.31
2023-05-19T01:53:23.771Z,4.40
2023-05-19T01:54:23.764Z,4.41
2023-05-19T01:55:23.827Z,4.40
2023-05-19T01:56:23.722Z,4.48
2023-05-19T01:57:23.748Z,4.53
2023-05-19T01:58:23.714Z,4.60
2023-05-19T01:59:23.700Z,4.58
2023-05-19T02:00:23.703Z,4.56
2023-05-19T02:01:23.733Z,4.62
2023-05-19T02:02:23.711Z,4.63
2023-05-19T02:03:23.658Z,4.60
2023-05-19T02:04:23.705Z,4.59
2023-05-19T02:05:23.639Z,4.60
2023-05-19T02:06:23.645Z,4.56
2023-05-19T02:07:23.617Z,4.59
2023-05-19T02:08:23.602Z,4.56
2023-05-19T02:09:23.607Z,4.53
2023-05-19T02:10:23.623Z,4.50
2023-05-19T02:11:23.593Z,4.48
2023-05-19T02:12:23.559Z,4.38
2023-05-19T02:13:23.558Z,4.31
2023-05-19T02:14:23.535Z,4.28
2023-05-19T02:15:23.553Z,4.19
2023-05-19T02:16:23.570Z,4.12
2023-05-19T02:17:23.544Z,4.06
2023-05-19T02:18:23.487Z,4.06
2023-05-19T02:19:23.638Z,4.02
2023-05-19T02:20:23.484Z,4.01
2023-05-19T02:21:23.466Z,3.99
2023-05-19T02:22:23.452Z,4.08
2023-05-19T02:23:23.445Z,4.13
2023-05-19T02:24:23.433Z,4.22
2023-05-19T02:25:23.794Z,4.23
2023-05-19T02:26:23.408Z,4.26
2023-05-19T02:27:23.404Z,4.28
2023-05-19T02:28:23.393Z,4.24
2023-05-19T02:29:23.410Z,4.22
2023-05-19T02:30:23.382Z,4.24
2023-05-19T02:31:23.387Z,4.28
2023-05-19T02:32:23.353Z,4.32
2023-05-19T02:33:23.332Z,4.42
2023-05-19T02:34:23.354Z,4.44
2023-05-19T02:35:23.317Z,4.49
2023-05-19T02:36:23.296Z,4.56
2023-05-19T02:37:23.297Z,4.53
2023-05-19T02:38:23.282Z,4.48
2023-05-19T02:39:23.291Z,4.42
2023-05-19T02:40:23.277Z,4.42
2023-05-19T02:41:23.254Z,4.48
2023-05-19T02:42:23.249Z,4.55
2023-05-19T02:43:23.252Z,4.55
2023-05-19T02:44:23.231Z,4.67
2023-05-19T02:45:23.220Z,4.78
2023-05-19T02:46:23.219Z,4.90
2023-05-19T02:47:23.237Z,5.00
2023-05-19T02:48:23.139Z,5.05
2023-05-19T02:49:23.178Z,5.15
2023-05-19T02:50:23.153Z,5.23
2023-05-19T02:51:23.157Z,5.26
2023-05-19T02:52:23.133Z,5.26
2023-05-19T02:53:23.103Z,5.33
2023-05-19T02:54:23.059Z,5.38
2023-05-19T02:55:23.062Z,5.44
2023-05-19T02:56:23.042Z,5.43
2023-05-19T02:57:23.112Z,5.29
2023-05-19T02:58:23.090Z,5.14
2023-05-19T02:59:25.408Z,5.00
2023-05-19T03:00:23.012Z,4.92
2023-05-19T03:01:23.105Z,4.84
2023-05-19T03:02:22.996Z,4.80
2023-05-19T03:03:23.140Z,4.77
2023-05-19T03:04:22.980Z,4.71
2023-05-19T03:05:22.961Z,4.66
2023-05-19T03:06:22.930Z,4.55
2023-05-19T03:07:22.946Z,4.48
2023-05-19T03:08:22.962Z,4.37
2023-05-19T03:09:22.914Z,4.32
2023-05-19T03:10:22.904Z,4.30
2023-05-19T03:11:22.902Z,4.28
2023-05-19T03:12:22.924Z,4.26
2023-05-19T03:13:22.879Z,4.23
2023-05-19T03:14:22.857Z,4.20
2023-05-19T03:15:22.848Z,4.17
2023-05-19T03:16:22.894Z,4.16
2023-05-19T03:17:22.866Z,4.13
2023-05-19T03:18:22.827Z,4.12
2023-05-19T03:19:22.944Z,4.13
2023-05-19T03:20:22.802Z,4.13
2023-05-19T03:21:22.806Z,4.13
2023-05-19T03:22:22.777Z,4.06
2023-05-19T03:23:22.771Z,4.05
2023-05-19T03:24:22.757Z,4.05
2023-05-19T03:25:22.775Z,4.04
2023-05-19T03:26:22.749Z,4.08
2023-05-19T03:27:22.741Z,4.08
2023-05-19T03:28:22.727Z,4.10
2023-05-19T03:29:22.729Z,4.14
2023-05-19T03:30:22.698Z,4.14
2023-05-19T03:31:22.726Z,4.19
2023-05-19T03:32:22.725Z,4.24
2023-05-19T03:33:22.859Z,4.26
2023-05-19T03:34:22.682Z,4.26
2023-05-19T03:35:22.664Z,4.28
2023-05-19T03:36:22.667Z,4.30
2023-05-19T03:37:22.638Z,4.28
2023-05-19T03:38:22.623Z,4.30
2023-05-19T03:39:22.620Z,4.31
2023-05-19T03:40:22.615Z,4.30
2023-05-19T03:41:22.579Z,4.30
2023-05-19T03:42:22.626Z,4.28
2023-05-19T03:43:22.560Z,4.26
2023-05-19T03:44:22.578Z,4.23
2023-05-19T03:45:22.548Z,4.22
2023-05-19T03:46:22.649Z,4.17
2023-05-19T03:47:22.518Z,4.17
2023-05-19T03:48:22.517Z,4.17
2023-05-19T03:49:22.520Z,4.17
2023-05-19T03:50:22.490Z,4.19
2023-05-19T03:51:22.485Z,4.20
2023-05-19T03:52:22.470Z,4.26
2023-05-19T03:53:22.481Z,4.26
2023-05-19T03:54:22.511Z,4.26
2023-05-19T03:55:22.475Z,4.28
2023-05-19T03:56:22.415Z,4.28
2023-05-19T03:57:22.417Z,4.30
2023-05-19T03:58:22.441Z,4.31
2023-05-19T03:59:22.400Z,4.31
2023-05-19T04:00:22.398Z,4.35
2023-05-19T04:01:22.382Z,4.35
2023-05-19T04:02:22.421Z,4.40
2023-05-19T04:03:22.452Z,4.41
2023-05-19T04:04:22.381Z,4.48
2023-05-19T04:05:22.330Z,4.52
2023-05-19T04:06:22.312Z,4.53
2023-05-19T04:07:22.336Z,4.56
2023-05-19T04:08:22.336Z,4.59
2023-05-19T04:09:22.283Z,4.60
2023-05-19T04:10:22.312Z,4.62
2023-05-19T04:11:22.285Z,4.62
2023-05-19T04:12:22.312Z,4.67
2023-05-19T04:13:22.321Z,4.70
2023-05-19T04:14:22.236Z,4.70
2023-05-19T04:15:22.228Z,4.70
2023-05-19T04:16:22.328Z,4.73
2023-05-19T04:17:22.226Z,4.74
2023-05-19T04:18:22.209Z,4.77
2023-05-19T04:19:22.279Z,4.78
2023-05-19T04:20:22.174Z,4.84
2023-05-19T04:21:22.191Z,4.82
2023-05-19T04:22:22.177Z,4.84
2023-05-19T04:23:22.142Z,4.89
2023-05-19T04:24:22.172Z,4.89
2023-05-19T04:25:22.124Z,4.90
2023-05-19T04:26:22.147Z,4.87
2023-05-19T04:27:22.101Z,4.89
2023-05-19T04:28:22.088Z,4.86
2023-05-19T04:29:22.086Z,4.86
2023-05-19T04:30:22.102Z,4.87
2023-05-19T04:31:22.176Z,4.89
2023-05-19T04:32:22.042Z,4.93
2023-05-19T04:33:22.058Z,4.96
2023-05-19T04:34:22.061Z,5.02
2023-05-19T04:35:22.042Z,5.07
2023-05-19T04:36:22.030Z,5.10
2023-05-19T04:37:22.007Z,5.11
2023-05-19T04:38:22.016Z,5.20
2023-05-19T04:39:21.976Z,5.26
2023-05-19T04:40:22.001Z,5.32
2023-05-19T04:41:21.994Z,5.38
2023-05-19T04:42:21.973Z,5.44
2023-05-19T04:43:21.967Z,5.50
2023-05-19T04:44:21.951Z,5.57
2023-05-19T04:45:21.972Z,5.59
2023-05-19T04:46:22.019Z,5.69
2023-05-19T04:47:22.005Z,5.75
2023-05-19T04:48:21.909Z,5.82
2023-05-19T04:49:21.958Z,5.87
2023-05-19T04:50:21.901Z,5.94
2023-05-19T04:51:21.872Z,6.01
2023-05-19T04:52:21.905Z,6.08
2023-05-19T04:53:21.860Z,6.12
2023-05-19T04:54:21.838Z,6.20
2023-05-19T04:55:21.849Z,6.26
2023-05-19T04:56:21.809Z,6.36
2023-05-19T04:57:21.809Z,6.41
2023-05-19T04:58:21.774Z,6.49
2023-05-19T04:59:21.788Z,6.70
2023-05-19T05:00:21.757Z,6.85
2023-05-19T05:01:21.847Z,6.92
2023-05-19T05:02:21.928Z,7.00
2023-05-19T05:03:21.931Z,7.06
2023-05-19T05:04:21.731Z,7.11
2023-05-19T05:05:21.706Z,7.17
2023-05-19T05:06:21.687Z,7.28
2023-05-19T05:07:21.680Z,7.36
2023-05-19T05:08:21.681Z,7.48
2023-05-19T05:09:21.661Z,7.69
2023-05-19T05:10:21.645Z,7.83
2023-05-19T05:11:21.643Z,8.03
2023-05-19T05:12:21.626Z,8.10
2023-05-19T05:13:21.624Z,8.19
2023-05-19T05:14:21.609Z,8.27
2023-05-19T05:15:21.639Z,8.31
2023-05-19T05:16:21.648Z,8.33
2023-05-19T05:17:21.622Z,8.36
2023-05-19T05:18:21.586Z,8.36
2023-05-19T05:19:21.592Z,8.41
2023-05-19T05:20:21.551Z,8.48
2023-05-19T05:21:21.534Z,8.53
2023-05-19T05:22:21.537Z,8.51
2023-05-19T05:23:21.513Z,8.58
2023-05-19T05:24:21.508Z,8.76
2023-05-19T05:25:21.506Z,8.97
2023-05-19T05:26:21.471Z,9.28
2023-05-19T05:27:21.503Z,9.68
2023-05-19T05:28:21.481Z,10.16
2023-05-19T05:29:21.469Z,10.75
2023-05-19T05:30:21.444Z,11.36
2023-05-19T05:31:21.452Z,11.80
2023-05-19T05:32:21.460Z,12.04
2023-05-19T05:33:21.524Z,12.06
2023-05-19T05:34:21.388Z,11.91
2023-05-19T05:35:21.385Z,11.70
2023-05-19T05:36:21.377Z,11.54
2023-05-19T05:37:21.388Z,11.48
2023-05-19T05:38:21.362Z,11.36
2023-05-19T05:39:21.340Z,11.32
2023-05-19T05:40:21.335Z,11.62
2023-05-19T05:41:21.344Z,12.02
2023-05-19T05:42:21.318Z,12.39
2023-05-19T05:43:21.297Z,12.76
2023-05-19T05:44:21.287Z,13.03
2023-05-19T05:45:21.290Z,13.50
2023-05-19T05:46:21.319Z,13.96
2023-05-19T05:47:21.268Z,14.33
2023-05-19T05:48:21.240Z,14.63
2023-05-19T05:49:21.239Z,14.94
2023-05-19T05:50:21.292Z,14.96
2023-05-19T05:51:21.230Z,14.92
2023-05-19T05:52:21.204Z,14.44
2023-05-19T05:53:21.195Z,13.87
2023-05-19T05:54:21.182Z,13.62
2023-05-19T05:55:21.198Z,13.56
2023-05-19T05:56:21.158Z,13.44
2023-05-19T05:57:21.160Z,13.46
2023-05-19T05:58:21.133Z,13.20
2023-05-19T05:59:21.151Z,13.04
2023-05-19T06:00:21.146Z,12.76
2023-05-19T06:01:21.113Z,12.70
2023-05-19T06:02:21.132Z,12.50
2023-05-19T06:03:21.175Z,12.35
2023-05-19T06:04:21.347Z,12.36
2023-05-19T06:05:21.134Z,12.45
2023-05-19T06:06:21.064Z,12.70
2023-05-19T06:07:21.068Z,13.05
2023-05-19T06:08:21.047Z,13.01
2023-05-19T06:09:21.040Z,13.31
2023-05-19T06:10:21.011Z,13.71
2023-05-19T06:11:20.999Z,13.92
2023-05-19T06:12:20.998Z,14.04
2023-05-19T06:13:20.991Z,13.86
2023-05-19T06:14:21.009Z,13.78
2023-05-19T06:15:20.979Z,13.54
2023-05-19T06:16:21.012Z,13.28
2023-05-19T06:17:20.937Z,13.11
2023-05-19T06:18:20.943Z,12.86
2023-05-19T06:19:20.948Z,12.75
2023-05-19T06:20:20.911Z,12.60
2023-05-19T06:21:20.893Z,12.54
2023-05-19T06:22:20.888Z,12.49
2023-05-19T06:23:20.899Z,12.39
2023-05-19T06:24:20.867Z,12.32
2023-05-19T06:25:20.858Z,12.27
2023-05-19T06:26:20.868Z,12.22
2023-05-19T06:27:20.857Z,12.21
2023-05-19T06:28:20.860Z,12.22
2023-05-19T06:29:20.857Z,12.18
2023-05-19T06:30:20.812Z,12.21
2023-05-19T06:31:20.805Z,12.22
2023-05-19T06:32:20.808Z,12.22
2023-05-19T06:33:20.797Z,12.27
2023-05-19T06:34:20.757Z,12.31
2023-05-19T06:35:20.734Z,12.35
2023-05-19T06:36:20.751Z,12.40
2023-05-19T06:37:20.735Z,12.46
2023-05-19T06:38:20.720Z,12.57
2023-05-19T06:39:20.714Z,12.68
2023-05-19T06:40:20.704Z,12.79
2023-05-19T06:41:20.692Z,12.87
2023-05-19T06:42:20.685Z,12.95
2023-05-19T06:43:20.659Z,13.04
2023-05-19T06:44:21.222Z,13.09
2023-05-19T06:45:20.634Z,13.12
2023-05-19T06:46:20.749Z,13.18
2023-05-19T06:47:20.824Z,13.23
2023-05-19T06:48:20.604Z,13.37
2023-05-19T06:49:20.590Z,13.54
2023-05-19T06:50:20.585Z,13.72
2023-05-19T06:51:20.891Z,13.96
2023-05-19T06:52:20.575Z,14.12
2023-05-19T06:53:20.547Z,14.29
2023-05-19T06:54:20.551Z,14.48
2023-05-19T06:55:20.570Z,14.63
2023-05-19T06:56:20.551Z,14.65
2023-05-19T06:57:20.507Z,14.78
2023-05-19T06:58:20.503Z,14.72
2023-05-19T06:59:20.534Z,14.48
2023-05-19T07:00:22.964Z,14.55
2023-05-19T07:01:20.513Z,14.63
2023-05-19T07:02:20.466Z,14.53
2023-05-19T07:03:20.586Z,14.40
2023-05-19T07:04:20.459Z,14.62
2023-05-19T07:05:20.436Z,15.06
2023-05-19T07:06:20.417Z,14.91
2023-05-19T07:07:20.415Z,15.44
2023-05-19T07:08:20.399Z,16.15
2023-05-19T07:09:20.405Z,16.78
2023-05-19T07:10:20.392Z,17.33
2023-05-19T07:11:20.367Z,17.79
2023-05-19T07:12:20.355Z,18.16
2023-05-19T07:13:20.337Z,18.50
2023-05-19T07:14:20.354Z,18.90
2023-05-19T07:15:20.312Z,19.22
2023-05-19T07:16:20.361Z,19.48
2023-05-19T07:17:20.604Z,19.94
2023-05-19T07:18:20.286Z,20.14
2023-05-19T07:19:20.357Z,19.86
2023-05-19T07:20:20.281Z,19.34
2023-05-19T07:21:20.252Z,19.26
2023-05-19T07:22:20.265Z,19.59
2023-05-19T07:23:20.240Z,20.07
2023-05-19T07:24:20.248Z,20.51
2023-05-19T07:25:20.224Z,20.80
2023-05-19T07:26:20.212Z,20.59
2023-05-19T07:27:20.183Z,20.04
2023-05-19T07:28:20.243Z,19.21
2023-05-19T07:29:20.185Z,18.78
2023-05-19T07:30:20.162Z,18.03
2023-05-19T07:31:20.147Z,17.64
2023-05-19T07:32:20.197Z,17.31
2023-05-19T07:33:20.146Z,17.05
2023-05-19T07:34:20.112Z,16.75
2023-05-19T07:35:20.098Z,16.57
2023-05-19T07:36:20.116Z,16.46
2023-05-19T07:37:20.119Z,16.39
2023-05-19T07:38:20.118Z,16.24
2023-05-19T07:39:20.118Z,15.88
2023-05-19T07:40:20.062Z,15.79
2023-05-19T07:41:20.047Z,15.76
2023-05-19T07:42:20.061Z,15.79
2023-05-19T07:43:20.038Z,16.02
2023-05-19T07:44:20.011Z,16.24
2023-05-19T07:45:20.011Z,16.41
2023-05-19T07:46:20.050Z,17.34
2023-05-19T07:47:19.984Z,17.80
2023-05-19T07:48:19.964Z,17.94
2023-05-19T07:49:19.952Z,18.34
2023-05-19T07:50:19.962Z,18.23
2023-05-19T07:51:19.925Z,18.05
2023-05-19T07:52:19.967Z,17.95
2023-05-19T07:53:19.921Z,17.94
2023-05-19T07:54:19.931Z,17.90
2023-05-19T07:55:19.913Z,17.94
2023-05-19T07:56:19.935Z,18.08
2023-05-19T07:57:19.902Z,18.07
2023-05-19T07:58:19.866Z,18.11
2023-05-19T07:59:19.852Z,17.97
2023-05-19T08:00:19.840Z,17.78
2023-05-19T08:01:19.830Z,17.79
2023-05-19T08:02:19.881Z,17.72
2023-05-19T08:03:19.898Z,17.70
2023-05-19T08:04:19.812Z,17.56
2023-05-19T08:05:19.778Z,17.70
2023-05-19T08:06:19.799Z,18.92
2023-05-19T08:07:19.768Z,19.85
2023-05-19T08:08:19.778Z,20.50
2023-05-19T08:09:19.734Z,20.74
2023-05-19T08:10:19.758Z,20.59
2023-05-19T08:11:19.722Z,20.39
2023-05-19T08:12:19.715Z,19.51
2023-05-19T08:13:19.711Z,19.71
2023-05-19T08:14:19.688Z,20.56
2023-05-19T08:15:19.758Z,21.02
2023-05-19T08:16:19.721Z,21.75
2023-05-19T08:17:19.668Z,22.20
2023-05-19T08:18:19.657Z,22.25
2023-05-19T08:19:19.685Z,22.53
2023-05-19T08:20:19.643Z,22.70
2023-05-19T08:21:19.604Z,22.66
2023-05-19T08:22:19.604Z,22.93
2023-05-19T08:23:19.591Z,22.93
2023-05-19T08:24:19.601Z,23.10
2023-05-19T08:25:19.645Z,23.08
2023-05-19T08:26:19.561Z,23.20
2023-05-19T08:27:19.543Z,23.31
2023-05-19T08:28:19.549Z,22.96
2023-05-19T08:29:19.861Z,23.02
2023-05-19T08:30:19.516Z,22.84
2023-05-19T08:31:19.536Z,21.96
2023-05-19T08:32:19.488Z,21.50
2023-05-19T08:33:19.482Z,21.58
2023-05-19T08:34:19.485Z,22.08
2023-05-19T08:35:19.476Z,22.47
2023-05-19T08:36:19.456Z,22.69
2023-05-19T08:37:19.446Z,22.91
2023-05-19T08:38:19.447Z,23.10
2023-05-19T08:39:19.505Z,23.02
2023-05-19T08:40:19.425Z,22.63
2023-05-19T08:41:19.394Z,22.69
2023-05-19T08:42:19.411Z,22.23
2023-05-19T08:43:19.405Z,21.07
2023-05-19T08:44:19.370Z,21.11
2023-05-19T08:45:19.348Z,21.22
2023-05-19T08:46:19.368Z,21.43
2023-05-19T08:47:19.341Z,21.09
2023-05-19T08:48:19.356Z,20.56
2023-05-19T08:49:19.311Z,20.04
2023-05-19T08:50:19.303Z,20.41
2023-05-19T08:51:19.281Z,20.48
2023-05-19T08:52:19.306Z,20.52
2023-05-19T08:53:32.414Z,20.96
2023-05-19T08:54:19.305Z,21.46
2023-05-19T08:55:19.240Z,21.40
2023-05-19T08:56:19.244Z,21.43
2023-05-19T08:57:19.245Z,21.73
2023-05-19T08:58:19.205Z,21.95
2023-05-19T08:59:19.205Z,21.35
2023-05-19T09:00:19.188Z,20.44
2023-05-19T09:01:19.208Z,19.76
2023-05-19T09:02:19.182Z,19.27
2023-05-19T09:04:19.237Z,19.69
2023-05-19T09:05:19.170Z,20.13
2023-05-19T09:06:19.164Z,20.60
2023-05-19T09:07:19.166Z,19.91
2023-05-19T09:08:19.106Z,20.77
2023-05-19T09:09:19.109Z,20.09
2023-05-19T09:10:19.087Z,19.76
2023-05-19T09:11:19.129Z,20.84
2023-05-19T09:12:19.072Z,20.63
2023-05-19T09:13:19.062Z,20.09
2023-05-19T09:14:19.069Z,19.71
2023-05-19T09:15:19.021Z,19.62
2023-05-19T09:16:19.069Z,19.04
2023-05-19T09:17:19.003Z,19.00
2023-05-19T09:18:19.005Z,18.70
2023-05-19T09:19:19.019Z,19.62
2023-05-19T09:20:19.008Z,19.37
2023-05-19T09:21:18.975Z,20.85
2023-05-19T09:22:18.973Z,20.03
2023-05-19T09:23:18.960Z,20.63
2023-05-19T09:24:18.951Z,20.97
2023-05-19T09:25:18.989Z,20.80
2023-05-19T09:26:18.935Z,20.03
2023-05-19T09:27:18.904Z,19.36
2023-05-19T09:28:18.902Z,18.84
2023-05-19T09:29:18.873Z,18.68
2023-05-19T09:30:18.918Z,18.84
2023-05-19T09:31:18.853Z,20.09
2023-05-19T09:32:18.948Z,20.11
2023-05-19T09:33:18.884Z,19.59
2023-05-19T09:34:18.900Z,20.09
2023-05-19T09:35:19.348Z,20.77
2023-05-19T09:36:18.832Z,21.22
2023-05-19T09:37:18.786Z,21.48
2023-05-19T09:38:18.785Z,21.02
2023-05-19T09:39:18.805Z,21.77
2023-05-19T09:40:18.827Z,22.30
2023-05-19T09:41:18.769Z,21.45
2023-05-19T09:42:18.748Z,21.15
2023-05-19T09:43:18.727Z,22.59
2023-05-19T09:44:18.746Z,21.99
2023-05-19T09:45:18.719Z,21.46
2023-05-19T09:46:18.757Z,21.07
2023-05-19T09:47:18.681Z,20.67
2023-05-19T09:48:18.696Z,20.28
2023-05-19T09:49:18.677Z,19.85
2023-05-19T09:50:18.750Z,19.34
2023-05-19T09:51:18.643Z,19.24
2023-05-19T09:52:18.653Z,19.07
2023-05-19T09:53:18.663Z,19.89
2023-05-19T09:54:18.631Z,21.35
2023-05-19T09:55:18.606Z,22.57
2023-05-19T09:56:18.592Z,23.27
2023-05-19T09:57:18.588Z,22.44
2023-05-19T09:58:18.584Z,22.20
2023-05-19T09:59:18.549Z,21.27
2023-05-19T10:00:18.621Z,20.81
2023-05-19T10:01:18.540Z,20.75
2023-05-19T10:02:18.545Z,21.29
2023-05-19T10:03:18.560Z,21.32
2023-05-19T10:04:18.517Z,20.62
2023-05-19T10:05:18.652Z,20.04
2023-05-19T10:06:18.509Z,19.76
2023-05-19T10:07:18.495Z,19.47
2023-05-19T10:08:18.479Z,20.52
2023-05-19T10:09:18.459Z,22.04
2023-05-19T10:10:18.441Z,22.14
2023-05-19T10:11:18.419Z,21.52
2023-05-19T10:12:18.441Z,20.66
2023-05-19T10:13:18.409Z,20.56
2023-05-19T10:14:18.397Z,21.09
2023-05-19T10:15:19.213Z,21.89
2023-05-19T10:16:18.427Z,22.57
2023-05-19T10:17:26.143Z,23.31
2023-05-19T10:18:18.357Z,22.30
2023-05-19T10:19:18.429Z,21.48
2023-05-19T10:20:18.331Z,20.47
2023-05-19T10:21:18.351Z,20.06
2023-05-19T10:22:18.340Z,19.79
2023-05-19T10:23:21.107Z,19.12
2023-05-19T10:24:19.403Z,18.93
2023-05-19T10:25:25.454Z,19.74
2023-05-19T10:26:18.279Z,19.79
2023-05-19T10:27:18.455Z,20.13
2023-05-19T10:28:21.245Z,21.55
2023-05-19T10:29:18.246Z,22.63
2023-05-19T10:30:18.249Z,23.59
2023-05-19T10:31:18.241Z,24.26
2023-05-19T10:32:18.229Z,24.35
2023-05-19T10:33:18.353Z,24.43
2023-05-19T10:34:18.219Z,24.74
2023-05-19T10:35:18.197Z,24.53
2023-05-19T10:36:20.650Z,23.87
2023-05-19T10:37:18.907Z,24.11
2023-05-19T10:38:18.130Z,24.85
2023-05-19T10:39:18.138Z,24.38
2023-05-19T10:40:18.138Z,24.40
2023-05-19T10:41:18.116Z,24.23
2023-05-19T10:42:18.094Z,24.53
2023-05-19T10:43:18.082Z,24.74
2023-05-19T10:44:18.089Z,25.07
2023-05-19T10:45:18.084Z,25.16
2023-05-19T10:46:18.075Z,25.28
2023-05-19T10:47:18.089Z,25.16
2023-05-19T10:48:18.028Z,24.70
2023-05-19T10:49:18.044Z,25.47
2023-05-19T10:50:18.051Z,25.90
2023-05-19T10:51:18.008Z,26.22
2023-05-19T10:52:17.989Z,25.65
2023-05-19T10:53:17.999Z,24.65
2023-05-19T10:54:17.985Z,24.91
2023-05-19T10:55:18.058Z,25.14
2023-05-19T10:56:17.957Z,25.50
2023-05-19T10:57:17.940Z,25.65
2023-05-19T10:58:17.937Z,26.09
2023-05-19T10:59:17.938Z,26.51
2023-05-19T11:00:17.908Z,26.33
2023-05-19T11:01:17.987Z,26.33
2023-05-19T11:02:17.987Z,25.26
2023-05-19T11:03:17.930Z,23.36
2023-05-19T11:04:17.934Z,23.62
2023-05-19T11:05:17.872Z,24.20
2023-05-19T11:06:17.860Z,24.63
2023-05-19T11:07:17.840Z,24.76
2023-05-19T11:08:17.844Z,24.53
2023-05-19T11:09:17.969Z,24.81
2023-05-19T11:10:17.796Z,24.93
2023-05-19T11:11:18.273Z,24.66
2023-05-19T11:12:17.776Z,24.60
2023-05-19T11:13:17.795Z,24.58
2023-05-19T11:14:17.773Z,25.04
2023-05-19T11:15:17.763Z,25.21
2023-05-19T11:16:17.747Z,25.43
2023-05-19T11:17:18.484Z,25.91
2023-05-19T11:18:17.749Z,26.05
2023-05-19T11:19:17.749Z,25.22
2023-05-19T11:20:17.715Z,24.80
2023-05-19T11:21:17.728Z,25.01
2023-05-19T11:22:17.689Z,25.26
2023-05-19T11:23:17.748Z,25.50
2023-05-19T11:24:17.652Z,25.78
2023-05-19T11:25:17.653Z,25.72
2023-05-19T11:26:17.632Z,25.43
2023-05-19T11:27:17.657Z,24.69
2023-05-19T11:28:17.621Z,24.99
2023-05-19T11:29:17.602Z,24.89
2023-05-19T11:30:17.602Z,24.85
2023-05-19T11:31:17.601Z,25.06
2023-05-19T11:32:17.650Z,25.13
2023-05-19T11:33:17.614Z,25.26
2023-05-19T11:34:17.538Z,24.88
2023-05-19T11:35:17.570Z,24.84
2023-05-19T11:36:17.570Z,24.98
2023-05-19T11:37:17.545Z,24.69
2023-05-19T11:38:17.548Z,24.92
2023-05-19T11:39:17.525Z,24.85
2023-05-19T11:40:17.506Z,25.23
2023-05-19T11:41:18.902Z,25.11
2023-05-19T11:42:17.458Z,24.98
2023-05-19T11:43:17.460Z,24.76
2023-05-19T11:44:17.441Z,24.39
2023-05-19T11:45:17.489Z,24.61
2023-05-19T11:46:17.532Z,24.95
2023-05-19T11:47:17.405Z,25.26
2023-05-19T11:48:17.560Z,25.10
2023-05-19T11:49:17.398Z,24.86
2023-05-19T11:50:17.406Z,24.80
2023-05-19T11:51:17.370Z,25.29
2023-05-19T11:52:17.401Z,25.44
2023-05-19T11:53:17.353Z,25.68
2023-05-19T11:54:17.343Z,25.85
2023-05-19T11:55:17.353Z,25.69
2023-05-19T11:56:17.313Z,25.84
2023-05-19T11:57:17.366Z,25.50
2023-05-19T11:58:17.542Z,25.53
2023-05-19T11:59:17.423Z,25.47
2023-05-19T12:00:17.271Z,24.45
2023-05-19T12:01:17.265Z,23.99
2023-05-19T12:02:17.274Z,23.25
2023-05-19T12:03:17.625Z,22.59
2023-05-19T12:04:17.265Z,22.20
2023-05-19T12:05:17.319Z,21.42
2023-05-19T12:06:17.265Z,21.07
2023-05-19T12:07:17.197Z,21.54
2023-05-19T12:08:17.177Z,22.07
2023-05-19T12:09:17.198Z,22.75
2023-05-19T12:10:17.157Z,23.36
2023-05-19T12:11:18.178Z,23.73
2023-05-19T12:12:17.222Z,23.76
2023-05-19T12:13:17.152Z,23.58
2023-05-19T12:14:17.126Z,24.05
2023-05-19T12:15:17.128Z,23.87
2023-05-19T12:16:17.158Z,23.92
2023-05-19T12:17:17.100Z,23.95
2023-05-19T12:18:17.099Z,24.10
2023-05-19T12:19:17.104Z,23.80
2023-05-19T12:20:17.056Z,23.31
2023-05-19T12:21:17.049Z,22.78
2023-05-19T12:22:17.031Z,22.08
2023-05-19T12:23:17.042Z,21.43
2023-05-19T12:24:17.006Z,20.92
2023-05-19T12:25:17.040Z,20.48
2023-05-19T12:26:16.998Z,20.10
2023-05-19T12:27:16.981Z,19.77
2023-05-19T12:28:17.098Z,20.39
2023-05-19T12:29:16.961Z,20.97
2023-05-19T12:30:16.978Z,21.60
2023-05-19T12:31:16.980Z,22.30
2023-05-19T12:32:16.942Z,22.85
2023-05-19T12:33:17.029Z,23.48
2023-05-19T12:34:16.911Z,23.56
2023-05-19T12:35:16.902Z,23.71
2023-05-19T12:36:16.885Z,23.69
2023-05-19T12:37:16.965Z,22.91
2023-05-19T12:38:16.862Z,22.63
2023-05-19T12:39:17.051Z,22.08
2023-05-19T12:40:16.861Z,21.61
2023-05-19T12:41:16.868Z,21.37
2023-05-19T12:42:16.860Z,21.79
2023-05-19T12:43:16.813Z,22.07
2023-05-19T12:44:16.824Z,21.72
2023-05-19T12:45:16.791Z,21.17
2023-05-19T12:46:16.828Z,20.93
2023-05-19T12:47:16.789Z,20.81
2023-05-19T12:48:16.836Z,20.63
2023-05-19T12:49:16.779Z,20.63
2023-05-19T12:50:16.730Z,20.43
2023-05-19T12:51:16.755Z,20.18
2023-05-19T12:52:16.723Z,20.13
2023-05-19T12:53:16.754Z,20.10
2023-05-19T12:54:16.724Z,20.10
2023-05-19T12:55:16.732Z,20.03
2023-05-19T12:56:16.706Z,19.86
2023-05-19T12:57:16.670Z,20.00
2023-05-19T12:58:16.648Z,20.00
2023-05-19T12:59:23.855Z,19.89
2023-05-19T13:00:16.699Z,19.99
2023-05-19T13:01:16.799Z,20.18
2023-05-19T13:02:16.682Z,20.22
2023-05-19T13:03:16.725Z,20.21
2023-05-19T13:04:16.608Z,19.89